createdAt,value
2022-08-20T00:00:29.050Z,19.74
2022-08-20T00:01:29.068Z,19.73
2022-08-20T00:02:29.019Z,19.71
2022-08-20T00:03:29.010Z,19.73
2022-08-20T00:04:28.998Z,19.73
2022-08-20T00:05:28.976Z,19.73
2022-08-20T00:06:28.967Z,19.71
2022-08-20T00:07:28.938Z,19.69
2022-08-20T00:08:28.949Z,19.69
2022-08-20T00:09:29.865Z,19.69
2022-08-20T00:10:28.921Z,19.69
2022-08-20T00:11:29.025Z,19.69
2022-08-20T00:12:28.890Z,19.64
2022-08-20T00:13:28.879Z,19.66
2022-08-20T00:14:28.869Z,19.64
2022-08-20T00:15:28.839Z,19.64
2022-08-20T00:16:28.831Z,19.63
2022-08-20T00:17:28.808Z,19.63
2022-08-20T00:18:28.822Z,19.59
2022-08-20T00:19:28.796Z,19.58
2022-08-20T00:20:28.781Z,19.59
2022-08-20T00:21:28.762Z,19.58
2022-08-20T00:22:28.758Z,19.56
2022-08-20T00:23:28.749Z,19.56
2022-08-20T00:24:28.734Z,19.54
2022-08-20T00:25:28.712Z,19.54
2022-08-20T00:26:28.699Z,19.54
2022-08-20T00:27:28.676Z,19.51
2022-08-20T00:28:28.680Z,19.51
2022-08-20T00:29:28.649Z,19.51
2022-08-20T00:30:28.658Z,19.51
2022-08-20T00:31:28.619Z,19.49
2022-08-20T00:32:28.619Z,19.48
2022-08-20T00:33:28.608Z,19.48
2022-08-20T00:34:28.589Z,19.47
2022-08-20T00:35:28.571Z,19.45
2022-08-20T00:36:32.823Z,19.45
2022-08-20T00:37:28.548Z,19.45
2022-08-20T00:38:28.558Z,19.45
2022-08-20T00:39:28.532Z,19.44
2022-08-20T00:40:28.509Z,19.41
2022-08-20T00:41:28.489Z,19.41
2022-08-20T00:42:28.491Z,19.41
2022-08-20T00:43:28.495Z,19.40
2022-08-20T00:44:28.467Z,19.39
2022-08-20T00:45:28.439Z,19.39
2022-08-20T00:46:31.581Z,19.37
2022-08-20T00:47:28.409Z,19.37
2022-08-20T00:48:28.419Z,19.36
2022-08-20T00:49:28.389Z,19.36
2022-08-20T00:50:28.379Z,19.34
2022-08-20T00:51:30.032Z,19.33
2022-08-20T00:52:28.349Z,19.33
2022-08-20T00:53:28.359Z,19.33
2022-08-20T00:54:28.320Z,19.30
2022-08-20T00:55:31.464Z,19.31
2022-08-20T00:56:28.308Z,19.30
2022-08-20T00:57:28.300Z,19.29
2022-08-20T00:58:29.289Z,19.26
2022-08-20T00:59:28.250Z,19.26
2022-08-20T01:00:28.259Z,19.26
2022-08-20T01:01:28.385Z,19.26
2022-08-20T01:02:28.280Z,19.24
2022-08-20T01:03:28.236Z,19.24
2022-08-20T01:04:28.190Z,19.24
2022-08-20T01:05:29.712Z,19.22
2022-08-20T01:06:28.179Z,19.22
2022-08-20T01:07:28.160Z,19.22
2022-08-20T01:08:28.170Z,19.19
2022-08-20T01:09:50.329Z,19.18
2022-08-20T01:10:29.133Z,19.15
2022-08-20T01:11:28.120Z,19.16
2022-08-20T01:12:29.111Z,19.14
2022-08-20T01:13:28.097Z,19.12
2022-08-20T01:14:28.059Z,19.12
2022-08-20T01:15:31.118Z,19.12
2022-08-20T01:16:28.175Z,19.12
2022-08-20T01:17:28.039Z,19.12
2022-08-20T01:18:28.029Z,19.12
2022-08-20T01:19:29.476Z,19.11
2022-08-20T01:20:28.009Z,19.12
2022-08-20T01:21:27.971Z,19.12
2022-08-20T01:22:27.959Z,19.11
2022-08-20T01:23:27.973Z,19.12
2022-08-20T01:24:27.927Z,19.11
2022-08-20T01:25:27.917Z,19.11
2022-08-20T01:26:27.889Z,19.09
2022-08-20T01:27:27.918Z,19.11
2022-08-20T01:28:27.883Z,19.11
2022-08-20T01:29:27.869Z,19.08
2022-08-20T01:30:27.859Z,19.09
2022-08-20T01:31:27.838Z,19.08
2022-08-20T01:32:27.822Z,19.08
2022-08-20T01:33:27.854Z,19.08
2022-08-20T01:34:27.810Z,19.07
2022-08-20T01:35:27.809Z,19.07
2022-08-20T01:36:27.779Z,19.04
2022-08-20T01:37:28.710Z,19.07
2022-08-20T01:38:27.781Z,19.02
2022-08-20T01:39:27.748Z,19.04
2022-08-20T01:40:27.721Z,19.02
2022-08-20T01:41:28.698Z,19.00
2022-08-20T01:42:27.700Z,19.02
2022-08-20T01:43:27.709Z,18.99
2022-08-20T01:44:27.667Z,19.00
2022-08-20T01:45:27.813Z,18.99
2022-08-20T01:46:27.646Z,18.99
2022-08-20T01:47:27.631Z,18.98
2022-08-20T01:48:27.639Z,18.98
2022-08-20T01:49:27.610Z,18.96
2022-08-20T01:50:27.618Z,18.95
2022-08-20T01:51:27.587Z,18.95
2022-08-20T01:52:27.553Z,18.95
2022-08-20T01:53:27.559Z,18.95
2022-08-20T01:54:27.597Z,18.93
2022-08-20T01:55:27.530Z,18.92
2022-08-20T01:56:27.509Z,18.90
2022-08-20T01:57:27.521Z,18.92
2022-08-20T01:58:27.501Z,18.90
2022-08-20T01:59:27.479Z,18.90
2022-08-20T02:00:27.514Z,18.90
2022-08-20T02:01:27.543Z,18.89
2022-08-20T02:02:27.456Z,18.89
2022-08-20T02:03:27.441Z,18.88
2022-08-20T02:04:27.402Z,18.89
2022-08-20T02:05:30.530Z,18.89
2022-08-20T02:06:27.380Z,18.89
2022-08-20T02:07:27.371Z,18.88
2022-08-20T02:08:27.359Z,18.88
2022-08-20T02:09:27.369Z,18.86
2022-08-20T02:10:27.330Z,18.84
2022-08-20T02:11:27.332Z,18.84
2022-08-20T02:12:27.290Z,18.84
2022-08-20T02:13:27.299Z,18.83
2022-08-20T02:14:27.272Z,18.83
2022-08-20T02:15:35.224Z,18.83
2022-08-20T02:16:28.232Z,18.83
2022-08-20T02:17:27.219Z,18.81
2022-08-20T02:18:27.222Z,18.80
2022-08-20T02:19:27.221Z,18.80
2022-08-20T02:20:27.181Z,18.80
2022-08-20T02:21:27.180Z,18.80
2022-08-20T02:22:27.162Z,18.78
2022-08-20T02:23:27.142Z,18.78
2022-08-20T02:24:27.161Z,18.78
2022-08-20T02:25:27.120Z,18.77
2022-08-20T02:26:27.102Z,18.75
2022-08-20T02:27:27.100Z,18.75
2022-08-20T02:28:27.071Z,18.75
2022-08-20T02:29:27.074Z,18.75
2022-08-20T02:30:27.448Z,18.73
2022-08-20T02:31:27.894Z,18.73
2022-08-20T02:32:33.852Z,18.73
2022-08-20T02:33:28.001Z,18.73
2022-08-20T02:34:27.228Z,18.70
2022-08-20T02:35:26.992Z,18.73
2022-08-20T02:36:26.970Z,18.70
2022-08-20T02:37:26.969Z,18.71
2022-08-20T02:38:26.949Z,18.68
2022-08-20T02:39:26.949Z,18.68
2022-08-20T02:40:30.514Z,18.68
2022-08-20T02:41:26.909Z,18.66
2022-08-20T02:42:26.897Z,18.65
2022-08-20T02:43:26.919Z,18.63
2022-08-20T02:44:26.879Z,18.62
2022-08-20T02:45:26.893Z,18.62
2022-08-20T02:46:26.891Z,18.60
2022-08-20T02:47:26.829Z,18.60
2022-08-20T02:48:26.969Z,18.58
2022-08-20T02:49:26.837Z,18.59
2022-08-20T02:50:26.797Z,18.59
2022-08-20T02:51:30.674Z,18.59
2022-08-20T02:52:26.780Z,18.58
2022-08-20T02:53:26.800Z,18.56
2022-08-20T02:54:26.754Z,18.56
2022-08-20T02:55:27.651Z,18.58
2022-08-20T02:56:26.769Z,18.55
2022-08-20T02:57:26.699Z,18.55
2022-08-20T02:58:26.729Z,18.53
2022-08-20T02:59:26.744Z,18.55
2022-08-20T03:00:26.715Z,18.53
2022-08-20T03:01:26.712Z,18.53
2022-08-20T03:02:26.651Z,18.53
2022-08-20T03:03:26.630Z,18.52
2022-08-20T03:04:26.620Z,18.52
2022-08-20T03:05:26.635Z,18.52
2022-08-20T03:06:26.619Z,18.49
2022-08-20T03:07:26.620Z,18.52
2022-08-20T03:08:26.550Z,18.50
2022-08-20T03:09:26.561Z,18.50
2022-08-20T03:10:26.587Z,18.50
2022-08-20T03:11:26.531Z,18.50
2022-08-20T03:12:26.530Z,18.50
2022-08-20T03:13:26.501Z,18.50
2022-08-20T03:14:26.506Z,18.50
2022-08-20T03:15:26.500Z,18.47
2022-08-20T03:16:26.460Z,18.49
2022-08-20T03:17:26.488Z,18.47
2022-08-20T03:18:26.429Z,18.45
2022-08-20T03:19:26.470Z,18.45
2022-08-20T03:20:26.403Z,18.47
2022-08-20T03:21:26.389Z,18.47
2022-08-20T03:22:26.390Z,18.45
2022-08-20T03:23:26.340Z,18.45
2022-08-20T03:24:26.352Z,18.45
2022-08-20T03:25:26.358Z,18.47
2022-08-20T03:26:26.310Z,18.45
2022-08-20T03:27:26.298Z,18.45
2022-08-20T03:28:27.280Z,18.45
2022-08-20T03:29:26.280Z,18.45
2022-08-20T03:30:26.251Z,18.43
2022-08-20T03:31:26.259Z,18.44
2022-08-20T03:32:26.230Z,18.43
2022-08-20T03:33:26.221Z,18.43
2022-08-20T03:34:26.210Z,18.43
2022-08-20T03:35:26.180Z,18.41
2022-08-20T03:36:27.866Z,18.41
2022-08-20T03:37:26.159Z,18.40
2022-08-20T03:38:32.320Z,18.40
2022-08-20T03:39:27.149Z,18.38
2022-08-20T03:40:26.139Z,18.38
2022-08-20T03:41:26.111Z,18.40
2022-08-20T03:42:26.080Z,18.38
2022-08-20T03:43:26.090Z,18.37
2022-08-20T03:44:26.069Z,18.37
2022-08-20T03:45:26.060Z,18.37
2022-08-20T03:46:26.037Z,18.34
2022-08-20T03:47:26.040Z,18.34
2022-08-20T03:48:26.010Z,18.33
2022-08-20T03:49:26.009Z,18.33
2022-08-20T03:50:25.979Z,18.29
2022-08-20T03:51:25.970Z,18.29
2022-08-20T03:52:25.953Z,18.29
2022-08-20T03:53:25.940Z,18.28
2022-08-20T03:54:31.515Z,18.26
2022-08-20T03:55:26.939Z,18.26
2022-08-20T03:56:25.912Z,18.25
2022-08-20T03:57:25.907Z,18.23
2022-08-20T03:58:34.266Z,18.22
2022-08-20T03:59:26.907Z,18.22
2022-08-20T04:00:25.889Z,18.20
2022-08-20T04:01:44.762Z,18.20
2022-08-20T04:02:26.890Z,18.19
2022-08-20T04:03:25.828Z,18.18
2022-08-20T04:04:25.877Z,18.16
2022-08-20T04:05:25.799Z,18.18
2022-08-20T04:06:25.802Z,18.15
2022-08-20T04:07:25.847Z,18.13
2022-08-20T04:08:25.804Z,18.11
2022-08-20T04:09:25.760Z,18.11
2022-08-20T04:10:25.720Z,18.11
2022-08-20T04:11:25.721Z,18.08
2022-08-20T04:12:25.710Z,18.08
2022-08-20T04:13:25.680Z,18.10
2022-08-20T04:14:25.686Z,18.08
2022-08-20T04:15:25.699Z,18.07
2022-08-20T04:16:25.699Z,18.07
2022-08-20T04:17:25.651Z,18.07
2022-08-20T04:18:25.672Z,18.05
2022-08-20T04:19:25.630Z,18.05
2022-08-20T04:20:25.600Z,18.03
2022-08-20T04:21:25.710Z,18.04
2022-08-20T04:22:26.551Z,18.01
2022-08-20T04:23:25.593Z,18.03
2022-08-20T04:24:32.018Z,18.01
2022-08-20T04:25:26.559Z,18.01
2022-08-20T04:26:25.510Z,18.01
2022-08-20T04:27:25.520Z,18.00
2022-08-20T04:28:25.520Z,17.98
2022-08-20T04:29:25.493Z,17.98
2022-08-20T04:30:26.461Z,17.97
2022-08-20T04:31:25.707Z,17.98
2022-08-20T04:32:25.458Z,17.97
2022-08-20T04:33:33.817Z,17.97
2022-08-20T04:34:26.464Z,17.97
2022-08-20T04:35:25.413Z,17.98
2022-08-20T04:36:25.400Z,17.97
2022-08-20T04:37:25.419Z,17.95
2022-08-20T04:38:25.383Z,17.94
2022-08-20T04:39:26.379Z,17.94
2022-08-20T04:40:25.330Z,17.95
2022-08-20T04:41:25.310Z,17.95
2022-08-20T04:42:25.280Z,17.94
2022-08-20T04:43:25.299Z,17.94
2022-08-20T04:44:25.290Z,17.92
2022-08-20T04:45:25.257Z,17.95
2022-08-20T04:46:25.246Z,17.95
2022-08-20T04:47:34.816Z,17.92
2022-08-20T04:48:26.220Z,17.94
2022-08-20T04:49:25.239Z,17.94
2022-08-20T04:50:25.196Z,17.94
2022-08-20T04:51:25.191Z,17.94
2022-08-20T04:52:25.190Z,17.94
2022-08-20T04:53:25.991Z,17.95
2022-08-20T04:54:25.140Z,17.94
2022-08-20T04:55:25.117Z,17.94
2022-08-20T04:56:25.109Z,17.94
2022-08-20T04:57:25.088Z,17.94
2022-08-20T04:58:25.075Z,17.94
2022-08-20T04:59:25.091Z,17.95
2022-08-20T05:00:25.049Z,17.94
2022-08-20T05:01:25.091Z,17.95
2022-08-20T05:02:25.029Z,17.97
2022-08-20T05:03:25.011Z,17.97
2022-08-20T05:04:25.007Z,17.97
2022-08-20T05:05:24.970Z,17.98
2022-08-20T05:06:24.981Z,17.98
2022-08-20T05:07:24.949Z,17.98
2022-08-20T05:08:24.940Z,18.00
2022-08-20T05:09:24.931Z,18.00
2022-08-20T05:10:24.930Z,18.00
2022-08-20T05:11:35.614Z,18.00
2022-08-20T05:12:25.891Z,18.00
2022-08-20T05:13:27.368Z,18.00
2022-08-20T05:14:24.877Z,18.00
2022-08-20T05:15:24.845Z,18.00
2022-08-20T05:16:24.844Z,18.00
2022-08-20T05:17:24.820Z,18.03
2022-08-20T05:18:24.816Z,18.01
2022-08-20T05:19:24.806Z,18.01
2022-08-20T05:20:24.779Z,18.01
2022-08-20T05:21:24.770Z,18.03
2022-08-20T05:22:24.763Z,18.01
2022-08-20T05:23:25.740Z,18.03
2022-08-20T05:24:24.738Z,18.03
2022-08-20T05:25:24.717Z,18.04
2022-08-20T05:26:24.751Z,18.05
2022-08-20T05:27:25.125Z,18.03
2022-08-20T05:28:24.679Z,18.05
2022-08-20T05:29:24.669Z,18.05
2022-08-20T05:30:24.650Z,18.04
2022-08-20T05:31:24.647Z,18.07
2022-08-20T05:32:25.629Z,18.07
2022-08-20T05:33:24.600Z,18.04
2022-08-20T05:34:24.609Z,18.07
2022-08-20T05:35:24.579Z,18.08
2022-08-20T05:36:24.570Z,18.08
2022-08-20T05:37:24.549Z,18.08
2022-08-20T05:38:24.544Z,18.10
2022-08-20T05:39:24.541Z,18.11
2022-08-20T05:40:24.564Z,18.10
2022-08-20T05:41:29.342Z,18.13
2022-08-20T05:42:25.492Z,18.13
2022-08-20T05:43:24.480Z,18.16
2022-08-20T05:44:24.494Z,18.15
2022-08-20T05:45:24.449Z,18.18
2022-08-20T05:46:24.446Z,18.18
2022-08-20T05:47:24.419Z,18.20
2022-08-20T05:48:24.410Z,18.20
2022-08-20T05:49:24.411Z,18.22
2022-08-20T05:50:24.389Z,18.23
2022-08-20T05:51:24.368Z,18.25
2022-08-20T05:52:24.359Z,18.26
2022-08-20T05:53:24.364Z,18.28
2022-08-20T05:54:24.393Z,18.29
2022-08-20T05:55:24.313Z,18.33
2022-08-20T05:56:27.127Z,18.31
2022-08-20T05:57:24.289Z,18.34
2022-08-20T05:58:24.279Z,18.37
2022-08-20T05:59:24.357Z,18.38
2022-08-20T06:00:24.270Z,18.40
2022-08-20T06:01:24.275Z,18.41
2022-08-20T06:02:24.227Z,18.44
2022-08-20T06:03:24.211Z,18.44
2022-08-20T06:04:24.231Z,18.45
2022-08-20T06:05:24.180Z,18.50
2022-08-20T06:06:44.967Z,18.50
2022-08-20T06:07:25.168Z,18.53
2022-08-20T06:08:24.150Z,18.55
2022-08-20T06:09:30.819Z,18.58
2022-08-20T06:10:25.145Z,18.60
2022-08-20T06:11:24.102Z,18.63
2022-08-20T06:12:24.089Z,18.66
2022-08-20T06:13:24.072Z,18.68
2022-08-20T06:14:24.090Z,18.71
2022-08-20T06:15:24.052Z,18.74
2022-08-20T06:16:24.031Z,18.74
2022-08-20T06:17:25.022Z,18.78
2022-08-20T06:18:28.398Z,18.80
2022-08-20T06:19:25.052Z,18.81
2022-08-20T06:20:23.991Z,18.83
2022-08-20T06:21:23.971Z,18.86
2022-08-20T06:22:26.530Z,18.88
2022-08-20T06:23:23.951Z,18.90
2022-08-20T06:24:23.949Z,18.92
2022-08-20T06:25:23.918Z,18.92
2022-08-20T06:26:24.817Z,18.93
2022-08-20T06:27:24.887Z,18.93
2022-08-20T06:28:23.894Z,18.93
2022-08-20T06:29:23.879Z,18.96
2022-08-20T06:30:23.858Z,18.96
2022-08-20T06:31:23.834Z,18.96
2022-08-20T06:32:31.795Z,18.98
2022-08-20T06:33:24.812Z,18.99
2022-08-20T06:34:23.818Z,19.00
2022-08-20T06:35:23.790Z,19.00
2022-08-20T06:36:23.771Z,19.02
2022-08-20T06:37:30.835Z,19.04
2022-08-20T06:38:24.751Z,19.07
2022-08-20T06:39:23.748Z,19.09
2022-08-20T06:40:23.718Z,19.09
2022-08-20T06:41:23.710Z,19.12
2022-08-20T06:42:24.692Z,19.14
2022-08-20T06:43:23.679Z,19.14
2022-08-20T06:44:23.677Z,19.18
2022-08-20T06:45:23.648Z,19.19
2022-08-20T06:46:23.642Z,19.22
2022-08-20T06:47:23.621Z,19.26
2022-08-20T06:48:23.611Z,19.27
2022-08-20T06:49:23.601Z,19.30
2022-08-20T06:50:23.602Z,19.33
2022-08-20T06:51:23.571Z,19.36
2022-08-20T06:52:47.103Z,19.37
2022-08-20T06:53:24.541Z,19.40
2022-08-20T06:54:23.541Z,19.41
2022-08-20T06:55:24.521Z,19.45
2022-08-20T06:56:23.500Z,19.47
2022-08-20T06:57:23.492Z,19.49
2022-08-20T06:58:36.298Z,19.52
2022-08-20T06:59:24.497Z,19.56
2022-08-20T07:00:23.460Z,19.56
2022-08-20T07:01:23.492Z,19.56
2022-08-20T07:02:23.422Z,19.59
2022-08-20T07:03:24.424Z,19.62
2022-08-20T07:04:23.411Z,19.59
2022-08-20T07:05:23.462Z,19.63
2022-08-20T07:06:23.373Z,19.64
2022-08-20T07:07:23.351Z,19.66
2022-08-20T07:08:23.341Z,19.66
2022-08-20T07:09:23.352Z,19.69
2022-08-20T07:10:23.321Z,19.69
2022-08-20T07:11:27.738Z,19.70
2022-08-20T07:12:24.312Z,19.71
2022-08-20T07:13:23.291Z,19.73
2022-08-20T07:14:23.722Z,19.74
2022-08-20T07:15:23.252Z,19.76
2022-08-20T07:16:23.241Z,19.76
2022-08-20T07:17:24.249Z,19.79
2022-08-20T07:18:28.130Z,19.79
2022-08-20T07:19:24.213Z,19.79
2022-08-20T07:20:23.196Z,19.81
2022-08-20T07:21:23.175Z,19.81
2022-08-20T07:22:23.176Z,19.82
2022-08-20T07:23:23.142Z,19.84
2022-08-20T07:24:23.163Z,19.84
2022-08-20T07:25:23.131Z,19.85
2022-08-20T07:26:23.121Z,19.88
2022-08-20T07:27:23.101Z,19.89
2022-08-20T07:28:23.114Z,19.91
2022-08-20T07:29:23.089Z,19.89
2022-08-20T07:30:23.053Z,19.94
2022-08-20T07:31:23.034Z,19.96
2022-08-20T07:32:23.052Z,19.95
2022-08-20T07:33:24.012Z,19.99
2022-08-20T07:34:23.019Z,20.02
2022-08-20T07:35:23.003Z,20.04
2022-08-20T07:36:22.989Z,20.04
2022-08-20T07:37:22.960Z,20.10
2022-08-20T07:38:22.982Z,20.11
2022-08-20T07:39:23.052Z,20.14
2022-08-20T07:40:26.150Z,20.19
2022-08-20T07:41:22.909Z,20.21
2022-08-20T07:42:22.894Z,20.24
2022-08-20T07:43:22.880Z,20.26
2022-08-20T07:44:22.873Z,20.32
2022-08-20T07:45:23.877Z,20.37
2022-08-20T07:46:22.841Z,20.41
2022-08-20T07:47:22.843Z,20.50
2022-08-20T07:48:27.906Z,20.55
2022-08-20T07:49:23.810Z,20.60
2022-08-20T07:50:22.809Z,20.65
2022-08-20T07:51:22.793Z,20.67
2022-08-20T07:52:22.758Z,20.74
2022-08-20T07:53:22.751Z,20.75
2022-08-20T07:54:22.759Z,20.78
2022-08-20T07:55:22.715Z,20.78
2022-08-20T07:56:22.721Z,20.80
2022-08-20T07:57:22.690Z,20.80
2022-08-20T07:58:22.673Z,20.82
2022-08-20T07:59:23.698Z,20.84
2022-08-20T08:00:22.720Z,20.84
2022-08-20T08:01:22.748Z,20.85
2022-08-20T08:02:22.660Z,20.87
2022-08-20T08:03:22.615Z,20.88
2022-08-20T08:04:23.644Z,20.88
2022-08-20T08:05:22.593Z,20.92
2022-08-20T08:06:29.242Z,20.93
2022-08-20T08:07:23.566Z,20.96
2022-08-20T08:08:22.545Z,20.97
2022-08-20T08:09:22.555Z,20.99
2022-08-20T08:10:22.560Z,21.02
2022-08-20T08:11:22.508Z,21.05
2022-08-20T08:12:22.497Z,21.06
2022-08-20T08:13:22.491Z,21.09
2022-08-20T08:14:22.482Z,21.11
2022-08-20T08:15:22.457Z,21.14
2022-08-20T08:16:22.444Z,21.15
2022-08-20T08:17:22.426Z,21.20
2022-08-20T08:18:22.425Z,21.20
2022-08-20T08:19:22.420Z,21.21
2022-08-20T08:20:22.386Z,21.21
2022-08-20T08:21:22.439Z,21.24
2022-08-20T08:22:22.370Z,21.24
2022-08-20T08:23:24.794Z,21.24
2022-08-20T08:24:27.837Z,21.27
2022-08-20T08:25:23.321Z,21.30
2022-08-20T08:26:22.315Z,21.33
2022-08-20T08:27:22.376Z,21.35
2022-08-20T08:28:22.279Z,21.36
2022-08-20T08:29:22.285Z,21.37
2022-08-20T08:30:22.255Z,21.39
2022-08-20T08:31:22.265Z,21.42
2022-08-20T08:32:22.222Z,21.43
2022-08-20T08:33:22.217Z,21.48
2022-08-20T08:34:22.216Z,21.51
2022-08-20T08:35:22.187Z,21.55
2022-08-20T08:36:22.183Z,21.58
2022-08-20T08:37:22.167Z,21.61
2022-08-20T08:38:22.157Z,21.64
2022-08-20T08:39:22.146Z,21.66
2022-08-20T08:40:22.167Z,21.69
2022-08-20T08:41:22.114Z,21.73
2022-08-20T08:42:22.098Z,21.75
2022-08-20T08:43:22.094Z,21.77
2022-08-20T08:44:22.127Z,21.79
2022-08-20T08:45:22.076Z,21.80
2022-08-20T08:46:22.051Z,21.83
2022-08-20T08:47:22.043Z,21.85
2022-08-20T08:48:22.025Z,21.88
2022-08-20T08:49:22.019Z,21.92
2022-08-20T08:50:43.820Z,21.95
2022-08-20T08:51:22.994Z,21.98
2022-08-20T08:52:21.958Z,21.99
2022-08-20T08:53:21.963Z,22.02
2022-08-20T08:54:22.274Z,22.04
2022-08-20T08:55:21.947Z,22.07
2022-08-20T08:56:21.919Z,22.08
2022-08-20T08:57:21.909Z,22.13
2022-08-20T08:58:21.890Z,22.13
2022-08-20T08:59:21.890Z,22.14
2022-08-20T09:00:21.853Z,22.14
2022-08-20T09:01:55.096Z,22.15
2022-08-20T09:02:22.861Z,22.15
2022-08-20T09:03:21.828Z,22.17
2022-08-20T09:04:21.966Z,22.15
2022-08-20T09:05:21.860Z,22.17
2022-08-20T09:06:29.303Z,22.15
2022-08-20T09:07:29.274Z,22.18
2022-08-20T09:08:29.261Z,22.18
2022-08-20T09:09:30.479Z,22.23
2022-08-20T09:10:29.237Z,22.23
2022-08-20T09:11:29.290Z,22.26
2022-08-20T09:12:29.226Z,22.29
2022-08-20T09:13:29.201Z,22.33
2022-08-20T09:14:30.379Z,22.38
2022-08-20T09:15:29.215Z,22.43
2022-08-20T09:16:21.640Z,22.48
2022-08-20T09:17:21.616Z,22.53
2022-08-20T09:18:21.636Z,22.57
2022-08-20T09:19:21.617Z,22.62
2022-08-20T09:20:25.916Z,22.65
2022-08-20T09:21:22.576Z,22.70
2022-08-20T09:22:21.571Z,22.72
2022-08-20T09:23:21.580Z,22.78
2022-08-20T09:24:21.552Z,22.80
2022-08-20T09:25:21.526Z,22.83
2022-08-20T09:26:21.506Z,22.85
2022-08-20T09:27:21.499Z,22.88
2022-08-20T09:28:21.485Z,22.91
2022-08-20T09:29:21.479Z,22.94
2022-08-20T09:30:21.466Z,22.96
2022-08-20T09:31:21.854Z,22.99
2022-08-20T09:32:21.433Z,23.03
2022-08-20T09:33:21.435Z,23.06
2022-08-20T09:34:21.412Z,23.10
2022-08-20T09:35:21.406Z,23.20
2022-08-20T09:36:28.717Z,23.23
2022-08-20T09:37:22.359Z,23.25
2022-08-20T09:38:21.338Z,23.28
2022-08-20T09:39:21.361Z,23.32
2022-08-20T09:40:21.666Z,23.32
2022-08-20T09:41:21.318Z,23.36
2022-08-20T09:42:21.302Z,23.37
2022-08-20T09:43:21.289Z,23.41
2022-08-20T09:44:21.278Z,23.44
2022-08-20T09:45:21.262Z,23.48
2022-08-20T09:46:27.290Z,23.54
2022-08-20T09:47:22.235Z,23.59
2022-08-20T09:48:21.217Z,23.63
2022-08-20T09:49:22.219Z,23.68
2022-08-20T09:50:21.188Z,23.74
2022-08-20T09:51:21.169Z,23.78
2022-08-20T09:52:21.158Z,23.78
2022-08-20T09:53:21.151Z,23.80
2022-08-20T09:54:21.149Z,23.78
2022-08-20T09:55:21.125Z,23.78
2022-08-20T09:56:21.121Z,23.78
2022-08-20T09:57:21.112Z,23.80
2022-08-20T09:58:21.078Z,23.80
2022-08-20T09:59:21.075Z,23.81
2022-08-20T10:00:21.081Z,23.80
2022-08-20T10:01:21.075Z,23.78
2022-08-20T10:02:21.034Z,23.77
2022-08-20T10:03:21.030Z,23.76
2022-08-20T10:04:21.007Z,23.76
2022-08-20T10:05:21.004Z,23.77
2022-08-20T10:06:20.980Z,23.77
2022-08-20T10:07:20.980Z,23.76
2022-08-20T10:08:20.948Z,23.73
2022-08-20T10:09:20.943Z,23.73
2022-08-20T10:10:20.932Z,23.74
2022-08-20T10:11:20.910Z,23.76
2022-08-20T10:12:20.906Z,23.77
2022-08-20T10:13:20.882Z,23.78
2022-08-20T10:14:20.871Z,23.80
2022-08-20T10:15:20.877Z,23.81
2022-08-20T10:16:20.844Z,23.81
2022-08-20T10:17:20.861Z,23.83
2022-08-20T10:18:20.810Z,23.81
2022-08-20T10:19:20.844Z,23.83
2022-08-20T10:20:20.862Z,23.84
2022-08-20T10:21:20.777Z,23.86
2022-08-20T10:22:20.759Z,23.87
2022-08-20T10:23:20.771Z,23.87
2022-08-20T10:24:20.738Z,23.91
2022-08-20T10:25:20.739Z,23.93
2022-08-20T10:26:20.703Z,23.93
2022-08-20T10:27:20.702Z,23.98
2022-08-20T10:28:20.687Z,23.98
2022-08-20T10:29:20.680Z,24.02
2022-08-20T10:30:20.685Z,24.05
2022-08-20T10:31:20.658Z,24.05
2022-08-20T10:32:21.014Z,24.03
2022-08-20T10:33:20.622Z,24.02
2022-08-20T10:34:20.603Z,24.02
2022-08-20T10:35:20.604Z,24.02
2022-08-20T10:36:20.659Z,24.01
2022-08-20T10:37:20.572Z,24.01
2022-08-20T10:38:20.554Z,24.01
2022-08-20T10:39:20.539Z,24.01
2022-08-20T10:40:20.595Z,24.03
2022-08-20T10:41:20.522Z,24.03
2022-08-20T10:42:20.511Z,24.05
2022-08-20T10:43:20.494Z,24.08
2022-08-20T10:44:20.474Z,24.11
2022-08-20T10:45:20.490Z,24.16
2022-08-20T10:46:20.464Z,24.20
2022-08-20T10:47:20.443Z,24.24
2022-08-20T10:48:21.644Z,24.24
2022-08-20T10:49:20.414Z,24.29
2022-08-20T10:50:20.401Z,24.33
2022-08-20T10:51:20.398Z,24.33
2022-08-20T10:52:20.356Z,24.36
2022-08-20T10:53:20.345Z,24.39
2022-08-20T10:54:20.383Z,24.43
2022-08-20T10:55:20.342Z,24.47
2022-08-20T10:56:20.315Z,24.51
2022-08-20T10:57:20.311Z,24.55
2022-08-20T10:58:20.314Z,24.58
2022-08-20T10:59:20.276Z,24.63
2022-08-20T11:00:20.266Z,24.66
2022-08-20T11:01:31.240Z,24.69
2022-08-20T11:02:21.364Z,24.69
2022-08-20T11:03:20.230Z,24.69
2022-08-20T11:04:20.205Z,24.69
2022-08-20T11:05:20.198Z,24.70
2022-08-20T11:06:20.178Z,24.68
2022-08-20T11:07:20.178Z,24.69
2022-08-20T11:08:33.617Z,24.68
2022-08-20T11:09:21.153Z,24.68
2022-08-20T11:10:20.148Z,24.66
2022-08-20T11:11:20.151Z,24.63
2022-08-20T11:12:20.108Z,24.65
2022-08-20T11:13:20.092Z,24.66
2022-08-20T11:14:20.080Z,24.68
2022-08-20T11:15:20.093Z,24.73
2022-08-20T11:16:20.076Z,24.76
2022-08-20T11:17:20.052Z,24.80
2022-08-20T11:18:20.022Z,24.81
2022-08-20T11:19:20.021Z,24.88
2022-08-20T11:20:20.033Z,24.89
2022-08-20T11:21:19.983Z,24.92
2022-08-20T11:22:19.989Z,24.96
2022-08-20T11:23:19.978Z,24.99
2022-08-20T11:24:19.941Z,25.01
2022-08-20T11:25:19.941Z,25.03
2022-08-20T11:26:19.930Z,25.04
2022-08-20T11:27:19.914Z,25.08
2022-08-20T11:28:31.392Z,25.11
2022-08-20T11:29:20.883Z,25.10
2022-08-20T11:30:19.882Z,25.11
2022-08-20T11:31:19.870Z,25.14
2022-08-20T11:32:19.841Z,25.16
2022-08-20T11:33:19.830Z,25.21
2022-08-20T11:34:19.803Z,25.23
2022-08-20T11:35:41.635Z,25.26
2022-08-20T11:36:20.811Z,25.31
2022-08-20T11:37:19.783Z,25.36
2022-08-20T11:38:19.761Z,25.38
2022-08-20T11:39:19.749Z,25.43
2022-08-20T11:40:19.803Z,25.48
2022-08-20T11:41:19.732Z,25.55
2022-08-20T11:42:19.713Z,25.68
2022-08-20T11:43:19.693Z,25.77
2022-08-20T11:44:20.348Z,25.87
2022-08-20T11:45:19.692Z,25.96
2022-08-20T11:46:19.661Z,26.03
2022-08-20T11:47:19.652Z,26.13
2022-08-20T11:48:19.639Z,26.18
2022-08-20T11:49:19.635Z,26.19
2022-08-20T11:50:19.627Z,26.19
2022-08-20T11:51:19.630Z,26.15
2022-08-20T11:52:19.584Z,26.09
2022-08-20T11:53:19.553Z,26.07
2022-08-20T11:54:19.585Z,26.03
2022-08-20T11:55:19.536Z,25.99
2022-08-20T11:56:19.523Z,25.93
2022-08-20T11:57:19.510Z,25.90
2022-08-20T11:58:19.498Z,25.87
2022-08-20T11:59:19.503Z,25.87
2022-08-20T12:00:19.495Z,25.85
2022-08-20T12:01:19.446Z,25.85
2022-08-20T12:02:19.500Z,25.85
2022-08-20T12:03:19.481Z,25.85
2022-08-20T12:04:19.427Z,25.88
2022-08-20T12:05:19.419Z,25.91
2022-08-20T12:06:19.397Z,25.95
2022-08-20T12:07:19.374Z,25.98
2022-08-20T12:08:27.568Z,25.99
2022-08-20T12:09:24.344Z,25.96
2022-08-20T12:10:19.388Z,25.95
2022-08-20T12:11:19.327Z,25.96
2022-08-20T12:12:19.317Z,25.99
2022-08-20T12:13:19.353Z,26.03
2022-08-20T12:14:19.296Z,26.05
2022-08-20T12:15:19.289Z,26.09
2022-08-20T12:16:19.282Z,26.15
2022-08-20T12:17:19.243Z,26.21
2022-08-20T12:18:19.243Z,26.22
2022-08-20T12:19:19.223Z,26.25
2022-08-20T12:20:19.236Z,26.25
2022-08-20T12:21:19.190Z,26.26
2022-08-20T12:22:25.049Z,26.29
2022-08-20T12:23:20.186Z,26.31
2022-08-20T12:24:19.159Z,26.33
2022-08-20T12:25:19.159Z,26.36
2022-08-20T12:26:19.139Z,26.36
2022-08-20T12:27:19.129Z,26.36
2022-08-20T12:28:19.117Z,26.36
2022-08-20T12:29:20.102Z,26.37
2022-08-20T12:30:19.110Z,26.37
2022-08-20T12:31:19.189Z,26.33
2022-08-20T12:32:19.070Z,26.34
2022-08-20T12:33:19.138Z,26.36
2022-08-20T12:34:19.061Z,26.40
2022-08-20T12:35:19.030Z,26.43
2022-08-20T12:36:19.009Z,26.47
2022-08-20T12:37:19.030Z,26.48
2022-08-20T12:38:19.034Z,26.51
2022-08-20T12:39:18.970Z,26.53
2022-08-20T12:40:22.714Z,26.56
2022-08-20T12:41:19.947Z,26.59
2022-08-20T12:42:18.928Z,26.63
2022-08-20T12:43:22.869Z,26.70
2022-08-20T12:44:19.943Z,26.75
2022-08-20T12:45:18.903Z,26.81
2022-08-20T12:46:18.921Z,26.83
2022-08-20T12:47:18.860Z,26.80
2022-08-20T12:48:18.861Z,26.78
2022-08-20T12:49:18.830Z,26.75
2022-08-20T12:50:18.872Z,26.68
2022-08-20T12:51:18.810Z,26.59
2022-08-20T12:52:18.804Z,26.51